PWSweather.com
Personal Weather Stations
Station Observations
KKSMOUND6
Moundridge, KS

Moundridge, KS

Lat: 38.195, Lon: -97.444

Elevation: 1496

Station Type: Davis Vantage Vue

High Low Average
Temperature 60.0°F15.6°C 46.1°F7.8°C 53.1°F11.7°C
Dew Point 46.3°F7.9°C 32.1°F0.1°C 39.4°F4.1°C
Winds 17.0 mph 27.4 kmh 3.0 mph 4.8 kmh 10.0 mph WSW16.1 kmh WSW
Wind Gusts 24.0 mph38.6 kmh 4.0 mph6.4 kmh 16.0 mph25.7 kmh
Humidity 95% 35% 64%
Pressure 29.97 in1014.9 mb 29.76 in1007.8 mb -
Precipitation 0.00 in0.0 mm - -
Hour Temp Dew Point Humidity Winds Wind Gusts Pressure Precip Precip Rate Daily Precip Total
12:02 AM 50.5°F10.3°C 43.2°F6.2°C 76% 12.0 mph S19.3 kmh S 17.0 mph27.4 kmh 29.82 in1009.8 mb 0.00 in0.0 mm 0.00 in/hr0.0 mm/hr 0.00 in0.0 mm
12:07 AM 50.6°F10.3°C 43.3°F6.3°C 76% 14.0 mph S22.5 kmh S 21.0 mph33.8 kmh 29.82 in1009.8 mb 0.00 in0.0 mm 0.00 in/hr0.0 mm/hr 0.00 in0.0 mm
12:12 AM 50.7°F10.4°C 43.4°F6.3°C 76% 16.0 mph S25.7 kmh S 21.0 mph33.8 kmh 29.82 in1009.8 mb 0.00 in0.0 mm 0.00 in/hr0.0 mm/hr 0.00 in0.0 mm
12:17 AM 50.6°F10.3°C 43.7°F6.5°C 77% 16.0 mph S25.7 kmh S 21.0 mph33.8 kmh 29.82 in1009.8 mb 0.00 in0.0 mm 0.00 in/hr0.0 mm/hr 0.00 in0.0 mm
12:22 AM 50.4°F10.2°C 43.5°F6.4°C 77% 15.0 mph S24.1 kmh S 20.0 mph32.2 kmh 29.82 in1009.8 mb 0.00 in0.0 mm 0.00 in/hr0.0 mm/hr 0.00 in0.0 mm
12:27 AM 50.1°F10.1°C 43.5°F6.4°C 78% 14.0 mph S22.5 kmh S 19.0 mph30.6 kmh 29.82 in1009.8 mb 0.00 in0.0 mm 0.00 in/hr0.0 mm/hr 0.00 in0.0 mm
12:32 AM 50.0°F10.0°C 43.4°F6.3°C 78% 14.0 mph S22.5 kmh S 19.0 mph30.6 kmh 29.82 in1009.8 mb 0.00 in0.0 mm 0.00 in/hr0.0 mm/hr 0.00 in0.0 mm
12:37 AM 50.0°F10.0°C 43.7°F6.5°C 79% 15.0 mph S24.1 kmh S 20.0 mph32.2 kmh 29.82 in1009.8 mb 0.00 in0.0 mm 0.00 in/hr0.0 mm/hr 0.00 in0.0 mm
12:42 AM 49.9°F9.9°C 43.6°F6.4°C 79% 14.0 mph S22.5 kmh S 20.0 mph32.2 kmh 29.82 in1009.8 mb 0.00 in0.0 mm 0.00 in/hr0.0 mm/hr 0.00 in0.0 mm
12:47 AM 49.9°F9.9°C 43.6°F6.4°C 79% 15.0 mph S24.1 kmh S 19.0 mph30.6 kmh 29.82 in1009.8 mb 0.00 in0.0 mm 0.00 in/hr0.0 mm/hr 0.00 in0.0 mm
12:52 AM 49.9°F9.9°C 44.0°F6.7°C 80% 15.0 mph S24.1 kmh S 19.0 mph30.6 kmh 29.81 in1009.5 mb 0.00 in0.0 mm 0.00 in/hr0.0 mm/hr 0.00 in0.0 mm
01:02 AM 49.9°F9.9°C 44.0°F6.7°C 80% 16.0 mph S25.7 kmh S 20.0 mph32.2 kmh 29.81 in1009.5 mb 0.00 in0.0 mm 0.00 in/hr0.0 mm/hr 0.00 in0.0 mm
01:07 AM 49.9°F9.9°C 44.0°F6.7°C 80% 16.0 mph S25.7 kmh S 22.0 mph35.4 kmh 29.81 in1009.5 mb 0.00 in0.0 mm 0.00 in/hr0.0 mm/hr 0.00 in0.0 mm
01:12 AM 49.9°F9.9°C 44.3°F6.8°C 81% 16.0 mph S25.7 kmh S 22.0 mph35.4 kmh 29.81 in1009.5 mb 0.00 in0.0 mm 0.00 in/hr0.0 mm/hr 0.00 in0.0 mm
01:17 AM 49.9°F9.9°C 44.3°F6.8°C 81% 16.0 mph S25.7 kmh S 23.0 mph37.0 kmh 29.81 in1009.5 mb 0.00 in0.0 mm 0.00 in/hr0.0 mm/hr 0.00 in0.0 mm
01:22 AM 49.8°F9.9°C 44.2°F6.8°C 81% 16.0 mph S25.7 kmh S 23.0 mph37.0 kmh 29.80 in1009.1 mb 0.00 in0.0 mm 0.00 in/hr0.0 mm/hr 0.00 in0.0 mm
01:27 AM 50.0°F10.0°C 44.4°F6.9°C 81% 17.0 mph S27.4 kmh S 23.0 mph37.0 kmh 29.80 in1009.1 mb 0.00 in0.0 mm 0.00 in/hr0.0 mm/hr 0.00 in0.0 mm
01:32 AM 50.0°F10.0°C 44.4°F6.9°C 81% 17.0 mph S27.4 kmh S 23.0 mph37.0 kmh 29.80 in1009.1 mb 0.00 in0.0 mm 0.00 in/hr0.0 mm/hr 0.00 in0.0 mm
01:37 AM 49.9°F9.9°C 44.3°F6.8°C 81% 16.0 mph S25.7 kmh S 22.0 mph35.4 kmh 29.80 in1009.1 mb 0.00 in0.0 mm 0.00 in/hr0.0 mm/hr 0.00 in0.0 mm
01:42 AM 49.9°F9.9°C 44.3°F6.8°C 81% 16.0 mph S25.7 kmh S 22.0 mph35.4 kmh 29.80 in1009.1 mb 0.00 in0.0 mm 0.00 in/hr0.0 mm/hr 0.00 in0.0 mm
01:47 AM 49.9°F9.9°C 44.3°F6.8°C 81% 16.0 mph S25.7 kmh S 21.0 mph33.8 kmh 29.80 in1009.1 mb 0.00 in0.0 mm 0.00 in/hr0.0 mm/hr 0.00 in0.0 mm
01:52 AM 49.9°F9.9°C 44.6°F7.0°C 82% 16.0 mph S25.7 kmh S 21.0 mph33.8 kmh 29.79 in1008.8 mb 0.00 in0.0 mm 0.00 in/hr0.0 mm/hr 0.00 in0.0 mm
01:57 AM 50.0°F10.0°C 44.7°F7.1°C 82% 17.0 mph S27.4 kmh S 23.0 mph37.0 kmh 29.79 in1008.8 mb 0.00 in0.0 mm 0.00 in/hr0.0 mm/hr 0.00 in0.0 mm
02:02 AM 50.0°F10.0°C 44.7°F7.1°C 82% 17.0 mph S27.4 kmh S 23.0 mph37.0 kmh 29.79 in1008.8 mb 0.00 in0.0 mm 0.00 in/hr0.0 mm/hr 0.00 in0.0 mm
02:07 AM 49.9°F9.9°C 44.6°F7.0°C 82% 16.0 mph S25.7 kmh S 21.0 mph33.8 kmh 29.79 in1008.8 mb 0.00 in0.0 mm 0.00 in/hr0.0 mm/hr 0.00 in0.0 mm
02:12 AM 49.8°F9.9°C 44.8°F7.1°C 83% 15.0 mph S24.1 kmh S 21.0 mph33.8 kmh 29.79 in1008.8 mb 0.00 in0.0 mm 0.00 in/hr0.0 mm/hr 0.00 in0.0 mm
02:17 AM 49.8°F9.9°C 44.8°F7.1°C 83% 16.0 mph S25.7 kmh S 21.0 mph33.8 kmh 29.78 in1008.5 mb 0.00 in0.0 mm 0.00 in/hr0.0 mm/hr 0.00 in0.0 mm
02:22 AM 49.9°F9.9°C 44.9°F7.2°C 83% 16.0 mph S25.7 kmh S 22.0 mph35.4 kmh 29.78 in1008.5 mb 0.00 in0.0 mm 0.00 in/hr0.0 mm/hr 0.00 in0.0 mm
02:27 AM 49.7°F9.8°C 44.7°F7.1°C 83% 16.0 mph S25.7 kmh S 22.0 mph35.4 kmh 29.78 in1008.5 mb 0.00 in0.0 mm 0.00 in/hr0.0 mm/hr 0.00 in0.0 mm
02:32 AM 49.7°F9.8°C 44.7°F7.1°C 83% 15.0 mph S24.1 kmh S 21.0 mph33.8 kmh 29.78 in1008.5 mb 0.00 in0.0 mm 0.00 in/hr0.0 mm/hr 0.00 in0.0 mm
02:37 AM 49.6°F9.8°C 44.6°F7.0°C 83% 16.0 mph S25.7 kmh S 21.0 mph33.8 kmh 29.78 in1008.5 mb 0.00 in0.0 mm 0.00 in/hr0.0 mm/hr 0.00 in0.0 mm
02:42 AM 49.6°F9.8°C 45.0°F7.2°C 84% 15.0 mph S24.1 kmh S 21.0 mph33.8 kmh 29.77 in1008.1 mb 0.00 in0.0 mm 0.00 in/hr0.0 mm/hr 0.00 in0.0 mm
02:47 AM 49.6°F9.8°C 45.0°F7.2°C 84% 15.0 mph S24.1 kmh S 22.0 mph35.4 kmh 29.77 in1008.1 mb 0.00 in0.0 mm 0.00 in/hr0.0 mm/hr 0.00 in0.0 mm
02:52 AM 49.6°F9.8°C 45.3°F7.4°C 85% 16.0 mph S25.7 kmh S 24.0 mph38.6 kmh 29.77 in1008.1 mb 0.00 in0.0 mm 0.00 in/hr0.0 mm/hr 0.00 in0.0 mm
03:22 AM 50.0°F10.0°C 46.0°F7.8°C 86% 17.0 mph S27.4 kmh S 24.0 mph38.6 kmh 29.78 in1008.5 mb 0.00 in0.0 mm 0.00 in/hr0.0 mm/hr 0.00 in0.0 mm
03:27 AM 50.0°F10.0°C 46.0°F7.8°C 86% 16.0 mph S25.7 kmh S 23.0 mph37.0 kmh 29.77 in1008.1 mb 0.00 in0.0 mm 0.00 in/hr0.0 mm/hr 0.00 in0.0 mm
03:42 AM 49.8°F9.9°C 46.1°F7.8°C 87% 15.0 mph S24.1 kmh S 21.0 mph33.8 kmh 29.77 in1008.1 mb 0.00 in0.0 mm 0.00 in/hr0.0 mm/hr 0.00 in0.0 mm
03:47 AM 49.7°F9.8°C 46.0°F7.8°C 87% 14.0 mph S22.5 kmh S 21.0 mph33.8 kmh 29.77 in1008.1 mb 0.00 in0.0 mm 0.00 in/hr0.0 mm/hr 0.00 in0.0 mm
03:52 AM 49.6°F9.8°C 45.9°F7.7°C 87% 15.0 mph S24.1 kmh S 21.0 mph33.8 kmh 29.77 in1008.1 mb 0.00 in0.0 mm 0.00 in/hr0.0 mm/hr 0.00 in0.0 mm
03:57 AM 49.5°F9.7°C 45.8°F7.7°C 87% 15.0 mph S24.1 kmh S 21.0 mph33.8 kmh 29.76 in1007.8 mb 0.00 in0.0 mm 0.00 in/hr0.0 mm/hr 0.00 in0.0 mm
04:02 AM 49.5°F9.7°C 46.1°F7.8°C 88% 15.0 mph S24.1 kmh S 22.0 mph35.4 kmh 29.76 in1007.8 mb 0.00 in0.0 mm 0.00 in/hr0.0 mm/hr 0.00 in0.0 mm
04:07 AM 49.4°F9.7°C 46.0°F7.8°C 88% 15.0 mph S24.1 kmh S 22.0 mph35.4 kmh 29.76 in1007.8 mb 0.00 in0.0 mm 0.00 in/hr0.0 mm/hr 0.00 in0.0 mm
04:12 AM 49.4°F9.7°C 46.0°F7.8°C 88% 14.0 mph S22.5 kmh S 20.0 mph32.2 kmh 29.76 in1007.8 mb 0.00 in0.0 mm 0.00 in/hr0.0 mm/hr 0.00 in0.0 mm
04:17 AM 49.4°F9.7°C 46.0°F7.8°C 88% 14.0 mph S22.5 kmh S 20.0 mph32.2 kmh 29.76 in1007.8 mb 0.00 in0.0 mm 0.00 in/hr0.0 mm/hr 0.00 in0.0 mm
04:22 AM 49.4°F9.7°C 46.3°F7.9°C 89% 14.0 mph SSW22.5 kmh SSW 19.0 mph30.6 kmh 29.77 in1008.1 mb 0.00 in0.0 mm 0.00 in/hr0.0 mm/hr 0.00 in0.0 mm
04:27 AM 49.2°F9.6°C 46.1°F7.8°C 89% 13.0 mph SSW20.9 kmh SSW 19.0 mph30.6 kmh 29.76 in1007.8 mb 0.00 in0.0 mm 0.00 in/hr0.0 mm/hr 0.00 in0.0 mm
04:32 AM 49.2°F9.6°C 46.1°F7.8°C 89% 13.0 mph SSW20.9 kmh SSW 19.0 mph30.6 kmh 29.76 in1007.8 mb 0.00 in0.0 mm 0.00 in/hr0.0 mm/hr 0.00 in0.0 mm
04:37 AM 49.2°F9.6°C 46.1°F7.8°C 89% 14.0 mph S22.5 kmh S 20.0 mph32.2 kmh 29.76 in1007.8 mb 0.00 in0.0 mm 0.00 in/hr0.0 mm/hr 0.00 in0.0 mm
04:42 AM 49.1°F9.5°C 46.0°F7.8°C 89% 14.0 mph S22.5 kmh S 20.0 mph32.2 kmh 29.76 in1007.8 mb 0.00 in0.0 mm 0.00 in/hr0.0 mm/hr 0.00 in0.0 mm
04:47 AM 49.1°F9.5°C 46.3°F7.9°C 90% 14.0 mph SSW22.5 kmh SSW 19.0 mph30.6 kmh 29.76 in1007.8 mb 0.00 in0.0 mm 0.00 in/hr0.0 mm/hr 0.00 in0.0 mm
04:52 AM 49.1°F9.5°C 46.3°F7.9°C 90% 14.0 mph S22.5 kmh S 19.0 mph30.6 kmh 29.76 in1007.8 mb 0.00 in0.0 mm 0.00 in/hr0.0 mm/hr 0.00 in0.0 mm
04:57 AM 49.0°F9.4°C 46.2°F7.9°C 90% 14.0 mph S22.5 kmh S 20.0 mph32.2 kmh 29.76 in1007.8 mb 0.00 in0.0 mm 0.00 in/hr0.0 mm/hr 0.00 in0.0 mm
05:02 AM 48.9°F9.4°C 46.1°F7.8°C 90% 13.0 mph SSW20.9 kmh SSW 20.0 mph32.2 kmh 29.76 in1007.8 mb 0.00 in0.0 mm 0.00 in/hr0.0 mm/hr 0.00 in0.0 mm
05:07 AM 48.8°F9.3°C 46.0°F7.8°C 90% 13.0 mph S20.9 kmh S 18.0 mph29.0 kmh 29.76 in1007.8 mb 0.00 in0.0 mm 0.00 in/hr0.0 mm/hr 0.00 in0.0 mm
05:12 AM 48.8°F9.3°C 46.0°F7.8°C 90% 13.0 mph S20.9 kmh S 18.0 mph29.0 kmh 29.76 in1007.8 mb 0.00 in0.0 mm 0.00 in/hr0.0 mm/hr 0.00 in0.0 mm
05:17 AM 48.7°F9.3°C 45.9°F7.7°C 90% 13.0 mph S20.9 kmh S 18.0 mph29.0 kmh 29.76 in1007.8 mb 0.00 in0.0 mm 0.00 in/hr0.0 mm/hr 0.00 in0.0 mm
05:22 AM 48.7°F9.3°C 46.2°F7.9°C 91% 13.0 mph S20.9 kmh S 18.0 mph29.0 kmh 29.76 in1007.8 mb 0.00 in0.0 mm 0.00 in/hr0.0 mm/hr 0.00 in0.0 mm
05:27 AM 48.6°F9.2°C 46.1°F7.8°C 91% 13.0 mph S20.9 kmh S 18.0 mph29.0 kmh 29.77 in1008.1 mb 0.00 in0.0 mm 0.00 in/hr0.0 mm/hr 0.00 in0.0 mm
06:07 AM 48.0°F8.9°C 45.8°F7.7°C 92% 8.0 mph SW12.9 kmh SW 13.0 mph20.9 kmh 29.80 in1009.1 mb 0.00 in0.0 mm 0.00 in/hr0.0 mm/hr 0.00 in0.0 mm
06:12 AM 47.7°F8.7°C 45.5°F7.5°C 92% 7.0 mph SW11.3 kmh SW 12.0 mph19.3 kmh 29.80 in1009.1 mb 0.00 in0.0 mm 0.00 in/hr0.0 mm/hr 0.00 in0.0 mm
06:17 AM 47.5°F8.6°C 45.3°F7.4°C 92% 5.0 mph SW8.0 kmh SW 10.0 mph16.1 kmh 29.81 in1009.5 mb 0.00 in0.0 mm 0.00 in/hr0.0 mm/hr 0.00 in0.0 mm
07:02 AM 46.1°F7.8°C 44.2°F6.8°C 93% 4.0 mph SW6.4 kmh SW 6.0 mph9.7 kmh 29.81 in1009.5 mb 0.00 in0.0 mm 0.00 in/hr0.0 mm/hr 0.00 in0.0 mm
07:07 AM 46.1°F7.8°C 44.5°F6.9°C 94% 4.0 mph SSW6.4 kmh SSW 7.0 mph11.3 kmh 29.81 in1009.5 mb 0.00 in0.0 mm 0.00 in/hr0.0 mm/hr 0.00 in0.0 mm
07:12 AM 46.2°F7.9°C 44.6°F7.0°C 94% 5.0 mph SSW8.0 kmh SSW 7.0 mph11.3 kmh 29.81 in1009.5 mb 0.00 in0.0 mm 0.00 in/hr0.0 mm/hr 0.00 in0.0 mm
07:22 AM 46.2°F7.9°C 44.6°F7.0°C 94% 4.0 mph SW6.4 kmh SW 6.0 mph9.7 kmh 29.81 in1009.5 mb 0.00 in0.0 mm 0.00 in/hr0.0 mm/hr 0.00 in0.0 mm
07:27 AM 46.2°F7.9°C 44.6°F7.0°C 94% 4.0 mph SSW6.4 kmh SSW 6.0 mph9.7 kmh 29.81 in1009.5 mb 0.00 in0.0 mm 0.00 in/hr0.0 mm/hr 0.00 in0.0 mm
07:42 AM 46.4°F8.0°C 45.0°F7.2°C 95% 3.0 mph SW4.8 kmh SW 6.0 mph9.7 kmh 29.82 in1009.8 mb 0.00 in0.0 mm 0.00 in/hr0.0 mm/hr 0.00 in0.0 mm
07:47 AM 46.6°F8.1°C 45.2°F7.3°C 95% 4.0 mph SW6.4 kmh SW 7.0 mph11.3 kmh 29.82 in1009.8 mb 0.00 in0.0 mm 0.00 in/hr0.0 mm/hr 0.00 in0.0 mm
08:07 AM 47.3°F8.5°C 45.7°F7.6°C 94% 4.0 mph SW6.4 kmh SW 7.0 mph11.3 kmh 29.82 in1009.8 mb 0.00 in0.0 mm 0.00 in/hr0.0 mm/hr 0.00 in0.0 mm
08:12 AM 47.4°F8.6°C 45.8°F7.7°C 94% 4.0 mph SW6.4 kmh SW 7.0 mph11.3 kmh 29.83 in1010.2 mb 0.00 in0.0 mm 0.00 in/hr0.0 mm/hr 0.00 in0.0 mm
08:17 AM 47.5°F8.6°C 45.9°F7.7°C 94% 4.0 mph SW6.4 kmh SW 7.0 mph11.3 kmh 29.83 in1010.2 mb 0.00 in0.0 mm 0.00 in/hr0.0 mm/hr 0.00 in0.0 mm
08:22 AM 47.5°F8.6°C 45.9°F7.7°C 94% 4.0 mph SW6.4 kmh SW 6.0 mph9.7 kmh 29.83 in1010.2 mb 0.00 in0.0 mm 0.00 in/hr0.0 mm/hr 0.00 in0.0 mm
08:27 AM 47.5°F8.6°C 45.9°F7.7°C 94% 4.0 mph SW6.4 kmh SW 6.0 mph9.7 kmh 29.83 in1010.2 mb 0.00 in0.0 mm 0.00 in/hr0.0 mm/hr 0.00 in0.0 mm
08:32 AM 47.4°F8.6°C 45.8°F7.7°C 94% 3.0 mph SW4.8 kmh SW 6.0 mph9.7 kmh 29.83 in1010.2 mb 0.00 in0.0 mm 0.00 in/hr0.0 mm/hr 0.00 in0.0 mm
08:37 AM 47.3°F8.5°C 45.7°F7.6°C 94% 3.0 mph SW4.8 kmh SW 6.0 mph9.7 kmh 29.84 in1010.5 mb 0.00 in0.0 mm 0.00 in/hr0.0 mm/hr 0.00 in0.0 mm
08:42 AM 47.3°F8.5°C 45.7°F7.6°C 94% 4.0 mph SW6.4 kmh SW 8.0 mph12.9 kmh 29.84 in1010.5 mb 0.00 in0.0 mm 0.00 in/hr0.0 mm/hr 0.00 in0.0 mm
09:22 AM 46.9°F8.3°C 45.3°F7.4°C 94% 4.0 mph SW6.4 kmh SW 5.0 mph8.0 kmh 29.86 in1011.2 mb 0.00 in0.0 mm 0.00 in/hr0.0 mm/hr 0.00 in0.0 mm
09:27 AM 46.7°F8.2°C 45.1°F7.3°C 94% 4.0 mph SW6.4 kmh SW 5.0 mph8.0 kmh 29.86 in1011.2 mb 0.00 in0.0 mm 0.00 in/hr0.0 mm/hr 0.00 in0.0 mm
11:07 AM 46.6°F8.1°C 38.8°F3.8°C 74% 6.0 mph NW9.7 kmh NW 10.0 mph16.1 kmh 29.89 in1012.2 mb 0.00 in0.0 mm 0.00 in/hr0.0 mm/hr 0.00 in0.0 mm
11:12 AM 46.9°F8.3°C 39.0°F3.9°C 74% 6.0 mph NW9.7 kmh NW 10.0 mph16.1 kmh 29.89 in1012.2 mb 0.00 in0.0 mm 0.00 in/hr0.0 mm/hr 0.00 in0.0 mm
11:22 AM 47.7°F8.7°C 39.1°F3.9°C 72% 6.0 mph NW9.7 kmh NW 10.0 mph16.1 kmh 29.90 in1012.5 mb 0.00 in0.0 mm 0.00 in/hr0.0 mm/hr 0.00 in0.0 mm
11:27 AM 48.2°F9.0°C 38.9°F3.8°C 70% 6.0 mph NW9.7 kmh NW 10.0 mph16.1 kmh 29.89 in1012.2 mb 0.00 in0.0 mm 0.00 in/hr0.0 mm/hr 0.00 in0.0 mm
11:32 AM 48.5°F9.2°C 38.4°F3.6°C 68% 8.0 mph NW12.9 kmh NW 12.0 mph19.3 kmh 29.90 in1012.5 mb 0.00 in0.0 mm 0.00 in/hr0.0 mm/hr 0.00 in0.0 mm
11:37 AM 49.0°F9.4°C 38.9°F3.8°C 68% 7.0 mph NW11.3 kmh NW 12.0 mph19.3 kmh 29.90 in1012.5 mb 0.00 in0.0 mm 0.00 in/hr0.0 mm/hr 0.00 in0.0 mm
11:42 AM 49.5°F9.7°C 39.0°F3.9°C 67% 7.0 mph NW11.3 kmh NW 10.0 mph16.1 kmh 29.90 in1012.5 mb 0.00 in0.0 mm 0.00 in/hr0.0 mm/hr 0.00 in0.0 mm
11:47 AM 50.1°F10.1°C 38.0°F3.3°C 63% 8.0 mph NW12.9 kmh NW 12.0 mph19.3 kmh 29.90 in1012.5 mb 0.00 in0.0 mm 0.00 in/hr0.0 mm/hr 0.00 in0.0 mm
11:52 AM 50.4°F10.2°C 37.0°F2.8°C 60% 8.0 mph NW12.9 kmh NW 15.0 mph24.1 kmh 29.90 in1012.5 mb 0.00 in0.0 mm 0.00 in/hr0.0 mm/hr 0.00 in0.0 mm
11:57 AM 50.5°F10.3°C 37.5°F3.1°C 61% 9.0 mph NW14.5 kmh NW 15.0 mph24.1 kmh 29.90 in1012.5 mb 0.00 in0.0 mm 0.00 in/hr0.0 mm/hr 0.00 in0.0 mm
12:47 PM 54.5°F12.5°C 32.4°F0.2°C 43% 11.0 mph NNW17.7 kmh NNW 17.0 mph27.4 kmh 29.91 in1012.9 mb 0.00 in0.0 mm 0.00 in/hr0.0 mm/hr 0.00 in0.0 mm
12:52 PM 54.8°F12.7°C 32.7°F0.4°C 43% 10.0 mph NNW16.1 kmh NNW 17.0 mph27.4 kmh 29.91 in1012.9 mb 0.00 in0.0 mm 0.00 in/hr0.0 mm/hr 0.00 in0.0 mm
01:22 PM 55.7°F13.2°C 32.3°F0.2°C 41% 10.0 mph NW16.1 kmh NW 17.0 mph27.4 kmh 29.91 in1012.9 mb 0.00 in0.0 mm 0.00 in/hr0.0 mm/hr 0.00 in0.0 mm
01:27 PM 55.5°F13.1°C 32.8°F0.4°C 42% 10.0 mph NW16.1 kmh NW 17.0 mph27.4 kmh 29.91 in1012.9 mb 0.00 in0.0 mm 0.00 in/hr0.0 mm/hr 0.00 in0.0 mm
01:32 PM 55.7°F13.2°C 33.5°F0.8°C 43% 10.0 mph NW16.1 kmh NW 16.0 mph25.7 kmh 29.91 in1012.9 mb 0.00 in0.0 mm 0.00 in/hr0.0 mm/hr 0.00 in0.0 mm
01:37 PM 56.1°F13.4°C 33.3°F0.7°C 42% 10.0 mph NW16.1 kmh NW 17.0 mph27.4 kmh 29.91 in1012.9 mb 0.00 in0.0 mm 0.00 in/hr0.0 mm/hr 0.00 in0.0 mm
01:42 PM 56.2°F13.4°C 33.4°F0.8°C 42% 10.0 mph NW16.1 kmh NW 17.0 mph27.4 kmh 29.91 in1012.9 mb 0.00 in0.0 mm 0.00 in/hr0.0 mm/hr 0.00 in0.0 mm
01:47 PM 56.3°F13.5°C 33.5°F0.8°C 42% 9.0 mph NW14.5 kmh NW 14.0 mph22.5 kmh 29.90 in1012.5 mb 0.00 in0.0 mm 0.00 in/hr0.0 mm/hr 0.00 in0.0 mm
01:52 PM 56.7°F13.7°C 33.8°F1.0°C 42% 9.0 mph NW14.5 kmh NW 14.0 mph22.5 kmh 29.90 in1012.5 mb 0.00 in0.0 mm 0.00 in/hr0.0 mm/hr 0.00 in0.0 mm
01:57 PM 57.0°F13.9°C 33.5°F0.8°C 41% 9.0 mph NW14.5 kmh NW 14.0 mph22.5 kmh 29.91 in1012.9 mb 0.00 in0.0 mm 0.00 in/hr0.0 mm/hr 0.00 in0.0 mm
02:07 PM 56.9°F13.8°C 33.4°F0.8°C 41% 11.0 mph NW17.7 kmh NW 17.0 mph27.4 kmh 29.90 in1012.5 mb 0.00 in0.0 mm 0.00 in/hr0.0 mm/hr 0.00 in0.0 mm
02:12 PM 57.5°F14.2°C 34.0°F1.1°C 41% 10.0 mph NNW16.1 kmh NNW 16.0 mph25.7 kmh 29.91 in1012.9 mb 0.00 in0.0 mm 0.00 in/hr0.0 mm/hr 0.00 in0.0 mm
02:17 PM 57.5°F14.2°C 32.7°F0.4°C 39% 10.0 mph NW16.1 kmh NW 18.0 mph29.0 kmh 29.91 in1012.9 mb 0.00 in0.0 mm 0.00 in/hr0.0 mm/hr 0.00 in0.0 mm
02:22 PM 57.2°F14.0°C 32.4°F0.2°C 39% 12.0 mph NW19.3 kmh NW 18.0 mph29.0 kmh 29.90 in1012.5 mb 0.00 in0.0 mm 0.00 in/hr0.0 mm/hr 0.00 in0.0 mm
02:27 PM 57.4°F14.1°C 33.3°F0.7°C 40% 12.0 mph NW19.3 kmh NW 20.0 mph32.2 kmh 29.91 in1012.9 mb 0.00 in0.0 mm 0.00 in/hr0.0 mm/hr 0.00 in0.0 mm
02:32 PM 58.0°F14.4°C 33.2°F0.7°C 39% 12.0 mph NW19.3 kmh NW 20.0 mph32.2 kmh 29.90 in1012.5 mb 0.00 in0.0 mm 0.00 in/hr0.0 mm/hr 0.00 in0.0 mm
02:37 PM 58.2°F14.6°C 33.3°F0.7°C 39% 12.0 mph NW19.3 kmh NW 19.0 mph30.6 kmh 29.90 in1012.5 mb 0.00 in0.0 mm 0.00 in/hr0.0 mm/hr 0.00 in0.0 mm
02:42 PM 58.2°F14.6°C 32.7°F0.4°C 38% 12.0 mph NW19.3 kmh NW 19.0 mph30.6 kmh 29.90 in1012.5 mb 0.00 in0.0 mm 0.00 in/hr0.0 mm/hr 0.00 in0.0 mm
02:47 PM 58.2°F14.6°C 33.3°F0.7°C 39% 13.0 mph NW20.9 kmh NW 20.0 mph32.2 kmh 29.90 in1012.5 mb 0.00 in0.0 mm 0.00 in/hr0.0 mm/hr 0.00 in0.0 mm
02:52 PM 58.0°F14.4°C 33.2°F0.7°C 39% 13.0 mph NW20.9 kmh NW 20.0 mph32.2 kmh 29.90 in1012.5 mb 0.00 in0.0 mm 0.00 in/hr0.0 mm/hr 0.00 in0.0 mm
02:57 PM 58.0°F14.4°C 33.2°F0.7°C 39% 11.0 mph NW17.7 kmh NW 19.0 mph30.6 kmh 29.90 in1012.5 mb 0.00 in0.0 mm 0.00 in/hr0.0 mm/hr 0.00 in0.0 mm
03:02 PM 57.6°F14.2°C 34.1°F1.2°C 41% 10.0 mph NW16.1 kmh NW 18.0 mph29.0 kmh 29.91 in1012.9 mb 0.00 in0.0 mm 0.00 in/hr0.0 mm/hr 0.00 in0.0 mm
03:07 PM 57.2°F14.0°C 34.3°F1.3°C 42% 9.0 mph NW14.5 kmh NW 15.0 mph24.1 kmh 29.90 in1012.5 mb 0.00 in0.0 mm 0.00 in/hr0.0 mm/hr 0.00 in0.0 mm
03:12 PM 57.3°F14.1°C 34.4°F1.3°C 42% 10.0 mph NW16.1 kmh NW 17.0 mph27.4 kmh 29.90 in1012.5 mb 0.00 in0.0 mm 0.00 in/hr0.0 mm/hr 0.00 in0.0 mm
03:17 PM 57.5°F14.2°C 34.6°F1.4°C 42% 10.0 mph NW16.1 kmh NW 17.0 mph27.4 kmh 29.90 in1012.5 mb 0.00 in0.0 mm 0.00 in/hr0.0 mm/hr 0.00 in0.0 mm
03:22 PM 57.7°F14.3°C 34.1°F1.2°C 41% 12.0 mph NNW19.3 kmh NNW 18.0 mph29.0 kmh 29.91 in1012.9 mb 0.00 in0.0 mm 0.00 in/hr0.0 mm/hr 0.00 in0.0 mm
03:27 PM 57.8°F14.3°C 34.2°F1.2°C 41% 12.0 mph NNW19.3 kmh NNW 18.0 mph29.0 kmh 29.91 in1012.9 mb 0.00 in0.0 mm 0.00 in/hr0.0 mm/hr 0.00 in0.0 mm
03:32 PM 58.2°F14.6°C 34.6°F1.4°C 41% 12.0 mph NNW19.3 kmh NNW 19.0 mph30.6 kmh 29.90 in1012.5 mb 0.00 in0.0 mm 0.00 in/hr0.0 mm/hr 0.00 in0.0 mm
03:37 PM 58.2°F14.6°C 34.6°F1.4°C 41% 12.0 mph NNW19.3 kmh NNW 20.0 mph32.2 kmh 29.91 in1012.9 mb 0.00 in0.0 mm 0.00 in/hr0.0 mm/hr 0.00 in0.0 mm
03:42 PM 58.1°F14.5°C 34.5°F1.4°C 41% 11.0 mph NW17.7 kmh NW 20.0 mph32.2 kmh 29.91 in1012.9 mb 0.00 in0.0 mm 0.00 in/hr0.0 mm/hr 0.00 in0.0 mm
03:47 PM 58.5°F14.7°C 34.9°F1.6°C 41% 11.0 mph NW17.7 kmh NW 18.0 mph29.0 kmh 29.91 in1012.9 mb 0.00 in0.0 mm 0.00 in/hr0.0 mm/hr 0.00 in0.0 mm
03:52 PM 58.9°F14.9°C 34.6°F1.4°C 40% 10.0 mph NW16.1 kmh NW 18.0 mph29.0 kmh 29.91 in1012.9 mb 0.00 in0.0 mm 0.00 in/hr0.0 mm/hr 0.00 in0.0 mm
03:57 PM 59.1°F15.1°C 34.8°F1.6°C 40% 10.0 mph NNW16.1 kmh NNW 18.0 mph29.0 kmh 29.91 in1012.9 mb 0.00 in0.0 mm 0.00 in/hr0.0 mm/hr 0.00 in0.0 mm
04:02 PM 59.1°F15.1°C 34.8°F1.6°C 40% 9.0 mph NW14.5 kmh NW 16.0 mph25.7 kmh 29.91 in1012.9 mb 0.00 in0.0 mm 0.00 in/hr0.0 mm/hr 0.00 in0.0 mm
04:07 PM 59.4°F15.2°C 33.8°F1.0°C 38% 10.0 mph NW16.1 kmh NW 16.0 mph25.7 kmh 29.91 in1012.9 mb 0.00 in0.0 mm 0.00 in/hr0.0 mm/hr 0.00 in0.0 mm
04:12 PM 59.5°F15.3°C 33.2°F0.7°C 37% 11.0 mph NNW17.7 kmh NNW 18.0 mph29.0 kmh 29.92 in1013.2 mb 0.00 in0.0 mm 0.00 in/hr0.0 mm/hr 0.00 in0.0 mm
04:17 PM 59.2°F15.1°C 33.6°F0.9°C 38% 11.0 mph NNW17.7 kmh NNW 18.0 mph29.0 kmh 29.92 in1013.2 mb 0.00 in0.0 mm 0.00 in/hr0.0 mm/hr 0.00 in0.0 mm
04:22 PM 59.5°F15.3°C 33.9°F1.1°C 38% 11.0 mph NNW17.7 kmh NNW 16.0 mph25.7 kmh 29.91 in1012.9 mb 0.00 in0.0 mm 0.00 in/hr0.0 mm/hr 0.00 in0.0 mm
04:27 PM 59.3°F15.2°C 33.7°F0.9°C 38% 11.0 mph NW17.7 kmh NW 17.0 mph27.4 kmh 29.92 in1013.2 mb 0.00 in0.0 mm 0.00 in/hr0.0 mm/hr 0.00 in0.0 mm
04:32 PM 59.2°F15.1°C 33.6°F0.9°C 38% 11.0 mph NW17.7 kmh NW 17.0 mph27.4 kmh 29.92 in1013.2 mb 0.00 in0.0 mm 0.00 in/hr0.0 mm/hr 0.00 in0.0 mm
04:37 PM 59.4°F15.2°C 33.8°F1.0°C 38% 11.0 mph NNW17.7 kmh NNW 17.0 mph27.4 kmh 29.92 in1013.2 mb 0.00 in0.0 mm 0.00 in/hr0.0 mm/hr 0.00 in0.0 mm
04:42 PM 59.9°F15.5°C 33.5°F0.8°C 37% 11.0 mph NNW17.7 kmh NNW 17.0 mph27.4 kmh 29.92 in1013.2 mb 0.00 in0.0 mm 0.00 in/hr0.0 mm/hr 0.00 in0.0 mm
04:47 PM 59.9°F15.5°C 33.5°F0.8°C 37% 10.0 mph NNW16.1 kmh NNW 17.0 mph27.4 kmh 29.92 in1013.2 mb 0.00 in0.0 mm 0.00 in/hr0.0 mm/hr 0.00 in0.0 mm
04:52 PM 60.0°F15.6°C 33.6°F0.9°C 37% 10.0 mph NW16.1 kmh NW 17.0 mph27.4 kmh 29.92 in1013.2 mb 0.00 in0.0 mm 0.00 in/hr0.0 mm/hr 0.00 in0.0 mm
04:57 PM 60.0°F15.6°C 32.9°F0.5°C 36% 10.0 mph NW16.1 kmh NW 17.0 mph27.4 kmh 29.93 in1013.5 mb 0.00 in0.0 mm 0.00 in/hr0.0 mm/hr 0.00 in0.0 mm
05:02 PM 59.9°F15.5°C 32.9°F0.5°C 36% 11.0 mph NW17.7 kmh NW 17.0 mph27.4 kmh 29.93 in1013.5 mb 0.00 in0.0 mm 0.00 in/hr0.0 mm/hr 0.00 in0.0 mm
05:07 PM 59.9°F15.5°C 32.9°F0.5°C 36% 10.0 mph NNW16.1 kmh NNW 17.0 mph27.4 kmh 29.92 in1013.2 mb 0.00 in0.0 mm 0.00 in/hr0.0 mm/hr 0.00 in0.0 mm
05:12 PM 59.9°F15.5°C 32.9°F0.5°C 36% 9.0 mph NW14.5 kmh NW 14.0 mph22.5 kmh 29.92 in1013.2 mb 0.00 in0.0 mm 0.00 in/hr0.0 mm/hr 0.00 in0.0 mm
05:17 PM 59.9°F15.5°C 32.9°F0.5°C 36% 9.0 mph NNW14.5 kmh NNW 14.0 mph22.5 kmh 29.93 in1013.5 mb 0.00 in0.0 mm 0.00 in/hr0.0 mm/hr 0.00 in0.0 mm
05:22 PM 59.7°F15.4°C 32.7°F0.4°C 36% 9.0 mph NNW14.5 kmh NNW 16.0 mph25.7 kmh 29.93 in1013.5 mb 0.00 in0.0 mm 0.00 in/hr0.0 mm/hr 0.00 in0.0 mm
05:27 PM 59.7°F15.4°C 32.7°F0.4°C 36% 8.0 mph NNW12.9 kmh NNW 16.0 mph25.7 kmh 29.93 in1013.5 mb 0.00 in0.0 mm 0.00 in/hr0.0 mm/hr 0.00 in0.0 mm
05:32 PM 59.8°F15.4°C 32.1°F0.1°C 35% 8.0 mph NNW12.9 kmh NNW 14.0 mph22.5 kmh 29.94 in1013.9 mb 0.00 in0.0 mm 0.00 in/hr0.0 mm/hr 0.00 in0.0 mm
05:37 PM 59.8°F15.4°C 32.8°F0.4°C 36% 9.0 mph N14.5 kmh N 14.0 mph22.5 kmh 29.94 in1013.9 mb 0.00 in0.0 mm 0.00 in/hr0.0 mm/hr 0.00 in0.0 mm
05:42 PM 59.7°F15.4°C 32.7°F0.4°C 36% 8.0 mph NNW12.9 kmh NNW 13.0 mph20.9 kmh 29.94 in1013.9 mb 0.00 in0.0 mm 0.00 in/hr0.0 mm/hr 0.00 in0.0 mm
05:47 PM 59.7°F15.4°C 33.4°F0.8°C 37% 7.0 mph NNW11.3 kmh NNW 13.0 mph20.9 kmh 29.95 in1014.2 mb 0.00 in0.0 mm 0.00 in/hr0.0 mm/hr 0.00 in0.0 mm
05:52 PM 59.5°F15.3°C 33.2°F0.7°C 37% 7.0 mph NNW11.3 kmh NNW 11.0 mph17.7 kmh 29.95 in1014.2 mb 0.00 in0.0 mm 0.00 in/hr0.0 mm/hr 0.00 in0.0 mm
05:57 PM 59.3°F15.2°C 33.7°F0.9°C 38% 7.0 mph NNW11.3 kmh NNW 11.0 mph17.7 kmh 29.95 in1014.2 mb 0.00 in0.0 mm 0.00 in/hr0.0 mm/hr 0.00 in0.0 mm
06:02 PM 59.1°F15.1°C 33.5°F0.8°C 38% 6.0 mph NNW9.7 kmh NNW 9.0 mph14.5 kmh 29.95 in1014.2 mb 0.00 in0.0 mm 0.00 in/hr0.0 mm/hr 0.00 in0.0 mm
06:07 PM 58.9°F14.9°C 34.0°F1.1°C 39% 5.0 mph NW8.0 kmh NW 9.0 mph14.5 kmh 29.95 in1014.2 mb 0.00 in0.0 mm 0.00 in/hr0.0 mm/hr 0.00 in0.0 mm
06:12 PM 58.7°F14.8°C 33.8°F1.0°C 39% 5.0 mph NW8.0 kmh NW 7.0 mph11.3 kmh 29.95 in1014.2 mb 0.00 in0.0 mm 0.00 in/hr0.0 mm/hr 0.00 in0.0 mm
06:17 PM 58.4°F14.7°C 33.5°F0.8°C 39% 4.0 mph NNW6.4 kmh NNW 7.0 mph11.3 kmh 29.96 in1014.6 mb 0.00 in0.0 mm 0.00 in/hr0.0 mm/hr 0.00 in0.0 mm
06:22 PM 58.2°F14.6°C 34.0°F1.1°C 40% 4.0 mph NW6.4 kmh NW 7.0 mph11.3 kmh 29.96 in1014.6 mb 0.00 in0.0 mm 0.00 in/hr0.0 mm/hr 0.00 in0.0 mm
06:27 PM 57.8°F14.3°C 34.2°F1.2°C 41% 4.0 mph NW6.4 kmh NW 6.0 mph9.7 kmh 29.97 in1014.9 mb 0.00 in0.0 mm 0.00 in/hr0.0 mm/hr 0.00 in0.0 mm
06:32 PM 57.2°F14.0°C 34.3°F1.3°C 42% 3.0 mph NW4.8 kmh NW 5.0 mph8.0 kmh 29.97 in1014.9 mb 0.00 in0.0 mm 0.00 in/hr0.0 mm/hr 0.00 in0.0 mm
06:37 PM 56.5°F13.6°C 33.7°F0.9°C 42% 3.0 mph NW4.8 kmh NW 4.0 mph6.4 kmh 29.97 in1014.9 mb 0.00 in0.0 mm 0.00 in/hr0.0 mm/hr 0.00 in0.0 mm
06:42 PM 56.0°F13.3°C 33.8°F1.0°C 43% 3.0 mph NW4.8 kmh NW 4.0 mph6.4 kmh 29.97 in1014.9 mb 0.00 in0.0 mm 0.00 in/hr0.0 mm/hr 0.00 in0.0 mm
06:47 PM 55.6°F13.1°C 33.4°F0.8°C 43% 3.0 mph NNW4.8 kmh NNW 4.0 mph6.4 kmh 29.97 in1014.9 mb 0.00 in0.0 mm 0.00 in/hr0.0 mm/hr 0.00 in0.0 mm
06:52 PM 55.2°F12.9°C 33.1°F0.6°C 43% 3.0 mph NNW4.8 kmh NNW 4.0 mph6.4 kmh 29.97 in1014.9 mb 0.00 in0.0 mm 0.00 in/hr0.0 mm/hr 0.00 in0.0 mm
06:57 PM 55.0°F12.8°C 32.9°F0.5°C 43% 3.0 mph NW4.8 kmh NW 5.0 mph8.0 kmh 29.98 in1015.2 mb 0.00 in0.0 mm 0.00 in/hr0.0 mm/hr 0.00 in0.0 mm